sensor_id;sensor_type;location;lat;lon;timestamp;temperature;humidity
67054;SHT31;53960;51.826;5.850;2022-09-09T00:04:40;15.49;91.84
67054;SHT31;53960;51.826;5.850;2022-09-09T00:15:13;15.20;91.71
67054;SHT31;53960;51.826;5.850;2022-09-09T00:21:06;15.24;92.31
67054;SHT31;53960;51.826;5.850;2022-09-09T00:23:37;15.20;92.67
67054;SHT31;53960;51.826;5.850;2022-09-09T00:31:34;15.23;92.17
67054;SHT31;53960;51.826;5.850;2022-09-09T00:34:21;15.18;92.10
67054;SHT31;53960;51.826;5.850;2022-09-09T00:36:49;15.11;92.10
67054;SHT31;53960;51.826;5.850;2022-09-09T00:39:32;15.08;92.01
67054;SHT31;53960;51.826;5.850;2022-09-09T00:42:16;15.14;92.55
67054;SHT31;53960;51.826;5.850;2022-09-09T00:44:51;15.11;92.18
67054;SHT31;53960;51.826;5.850;2022-09-09T00:50:00;14.93;91.73
67054;SHT31;53960;51.826;5.850;2022-09-09T00:52:51;14.83;91.99
67054;SHT31;53960;51.826;5.850;2022-09-09T00:55:48;14.79;91.96
67054;SHT31;53960;51.826;5.850;2022-09-09T00:58:14;14.80;92.16
67054;SHT31;53960;51.826;5.850;2022-09-09T01:03:39;14.73;92.12
67054;SHT31;53960;51.826;5.850;2022-09-09T01:06:18;14.62;92.38
67054;SHT31;53960;51.826;5.850;2022-09-09T01:13:52;14.49;92.76
67054;SHT31;53960;51.826;5.850;2022-09-09T01:16:18;14.46;92.80
67054;SHT31;53960;51.826;5.850;2022-09-09T01:18:46;14.45;92.78
67054;SHT31;53960;51.826;5.850;2022-09-09T01:21:41;14.39;92.75
67054;SHT31;53960;51.826;5.850;2022-09-09T01:24:21;14.32;92.93
67054;SHT31;53960;51.826;5.850;2022-09-09T01:26:48;14.35;92.88
67054;SHT31;53960;51.826;5.850;2022-09-09T01:29:17;14.42;92.94
67054;SHT31;53960;51.826;5.850;2022-09-09T01:31:57;14.45;92.37
67054;SHT31;53960;51.826;5.850;2022-09-09T01:34:36;14.43;92.37
67054;SHT31;53960;51.826;5.850;2022-09-09T01:37:06;14.40;92.34
67054;SHT31;53960;51.826;5.850;2022-09-09T01:39:33;14.46;92.30
67054;SHT31;53960;51.826;5.850;2022-09-09T01:41:59;14.49;92.12
67054;SHT31;53960;51.826;5.850;2022-09-09T01:44:25;14.46;91.84
67054;SHT31;53960;51.826;5.850;2022-09-09T01:46:51;14.38;92.11
67054;SHT31;53960;51.826;5.850;2022-09-09T01:49:18;14.32;92.17
67054;SHT31;53960;51.826;5.850;2022-09-09T01:51:45;14.26;92.48
67054;SHT31;53960;51.826;5.850;2022-09-09T01:54:11;14.29;92.64
67054;SHT31;53960;51.826;5.850;2022-09-09T02:00:21;14.26;92.50
67054;SHT31;53960;51.826;5.850;2022-09-09T02:02:36;14.26;92.56
67054;SHT31;53960;51.826;5.850;2022-09-09T02:05:16;14.22;92.94
67054;SHT31;53960;51.826;5.850;2022-09-09T02:07:47;14.28;92.93
67054;SHT31;53960;51.826;5.850;2022-09-09T02:10:21;14.30;92.82
67054;SHT31;53960;51.826;5.850;2022-09-09T02:12:51;14.29;92.86
67054;SHT31;53960;51.826;5.850;2022-09-09T02:15:25;14.28;92.92
67054;SHT31;53960;51.826;5.850;2022-09-09T02:17:52;14.25;92.98
67054;SHT31;53960;51.826;5.850;2022-09-09T02:20:19;14.24;93.11
67054;SHT31;53960;51.826;5.850;2022-09-09T02:22:47;14.21;93.28
67054;SHT31;53960;51.826;5.850;2022-09-09T02:25:17;14.24;93.34
67054;SHT31;53960;51.826;5.850;2022-09-09T02:27:45;14.25;93.41
67054;SHT31;53960;51.826;5.850;2022-09-09T02:30:12;14.25;93.35
67054;SHT31;53960;51.826;5.850;2022-09-09T02:32:39;14.24;93.31
67054;SHT31;53960;51.826;5.850;2022-09-09T02:35:09;14.25;93.20
67054;SHT31;53960;51.826;5.850;2022-09-09T02:37:39;14.30;93.12
67054;SHT31;53960;51.826;5.850;2022-09-09T02:40:07;14.33;93.10
67054;SHT31;53960;51.826;5.850;2022-09-09T02:42:41;14.28;93.01
67054;SHT31;53960;51.826;5.850;2022-09-09T02:45:08;14.28;93.20
67054;SHT31;53960;51.826;5.850;2022-09-09T02:47:37;14.29;92.98
67054;SHT31;53960;51.826;5.850;2022-09-09T02:52:55;14.22;93.26
67054;SHT31;53960;51.826;5.850;2022-09-09T02:55:38;14.15;93.51
67054;SHT31;53960;51.826;5.850;2022-09-09T02:58:07;14.19;93.56
67054;SHT31;53960;51.826;5.850;2022-09-09T03:00:34;14.22;93.37
67054;SHT31;53960;51.826;5.850;2022-09-09T03:03:03;14.18;93.47
67054;SHT31;53960;51.826;5.850;2022-09-09T03:05:29;14.26;93.33
67054;SHT31;53960;51.826;5.850;2022-09-09T03:07:54;14.19;93.50
67054;SHT31;53960;51.826;5.850;2022-09-09T03:10:20;14.25;93.38
67054;SHT31;53960;51.826;5.850;2022-09-09T03:12:45;14.22;93.46
67054;SHT31;53960;51.826;5.850;2022-09-09T03:15:10;14.21;93.64
67054;SHT31;53960;51.826;5.850;2022-09-09T03:17:36;14.22;93.64
67054;SHT31;53960;51.826;5.850;2022-09-09T03:20:03;14.21;93.59
67054;SHT31;53960;51.826;5.850;2022-09-09T03:22:29;14.25;93.59
67054;SHT31;53960;51.826;5.850;2022-09-09T03:24:54;14.22;93.86
67054;SHT31;53960;51.826;5.850;2022-09-09T03:27:19;14.19;93.80
67054;SHT31;53960;51.826;5.850;2022-09-09T03:29:45;14.25;93.62
67054;SHT31;53960;51.826;5.850;2022-09-09T03:32:11;14.18;94.02
67054;SHT31;53960;51.826;5.850;2022-09-09T03:34:37;14.18;93.99
67054;SHT31;53960;51.826;5.850;2022-09-09T03:37:06;14.17;94.06
67054;SHT31;53960;51.826;5.850;2022-09-09T03:39:31;14.19;94.11
67054;SHT31;53960;51.826;5.850;2022-09-09T03:41:56;14.24;94.10
67054;SHT31;53960;51.826;5.850;2022-09-09T03:44:22;14.30;93.99
67054;SHT31;53960;51.826;5.850;2022-09-09T03:46:47;14.32;93.87
67054;SHT31;53960;51.826;5.850;2022-09-09T03:49:13;14.24;94.08
67054;SHT31;53960;51.826;5.850;2022-09-09T03:51:38;14.28;94.10
67054;SHT31;53960;51.826;5.850;2022-09-09T03:54:04;14.30;94.19
67054;SHT31;53960;51.826;5.850;2022-09-09T03:56:33;14.33;93.98
67054;SHT31;53960;51.826;5.850;2022-09-09T03:58:58;14.33;94.13
67054;SHT31;53960;51.826;5.850;2022-09-09T04:01:23;14.38;94.02
67054;SHT31;53960;51.826;5.850;2022-09-09T04:03:48;14.30;94.25
67054;SHT31;53960;51.826;5.850;2022-09-09T04:06:15;14.35;94.25
67054;SHT31;53960;51.826;5.850;2022-09-09T04:08:42;14.40;94.17
67054;SHT31;53960;51.826;5.850;2022-09-09T04:11:07;14.43;94.00
67054;SHT31;53960;51.826;5.850;2022-09-09T04:13:34;14.42;94.26
67054;SHT31;53960;51.826;5.850;2022-09-09T04:16:01;14.50;94.05
67054;SHT31;53960;51.826;5.850;2022-09-09T04:18:27;14.50;93.92
67054;SHT31;53960;51.826;5.850;2022-09-09T04:20:56;14.48;94.19
67054;SHT31;53960;51.826;5.850;2022-09-09T04:23:23;14.53;94.19
67054;SHT31;53960;51.826;5.850;2022-09-09T04:25:51;14.55;94.07
67054;SHT31;53960;51.826;5.850;2022-09-09T04:28:18;14.53;94.36
67054;SHT31;53960;51.826;5.850;2022-09-09T04:30:44;14.53;94.34
67054;SHT31;53960;51.826;5.850;2022-09-09T04:33:10;14.56;94.18
67054;SHT31;53960;51.826;5.850;2022-09-09T04:35:36;14.63;94.05
67054;SHT31;53960;51.826;5.850;2022-09-09T04:38:02;14.67;93.84
67054;SHT31;53960;51.826;5.850;2022-09-09T04:40:32;14.75;93.81
67054;SHT31;53960;51.826;5.850;2022-09-09T04:42:59;14.76;93.89
67054;SHT31;53960;51.826;5.850;2022-09-09T04:45:24;14.76;94.00
67054;SHT31;53960;51.826;5.850;2022-09-09T04:47:51;14.75;94.24
67054;SHT31;53960;51.826;5.850;2022-09-09T04:50:16;14.72;94.38
67054;SHT31;53960;51.826;5.850;2022-09-09T04:52:41;14.73;94.35
67054;SHT31;53960;51.826;5.850;2022-09-09T04:55:07;14.75;94.42
67054;SHT31;53960;51.826;5.850;2022-09-09T04:57:34;14.80;94.40
67054;SHT31;53960;51.826;5.850;2022-09-09T04:59:59;14.77;94.46
67054;SHT31;53960;51.826;5.850;2022-09-09T05:02:28;14.79;94.54
67054;SHT31;53960;51.826;5.850;2022-09-09T05:04:54;14.80;94.29
67054;SHT31;53960;51.826;5.850;2022-09-09T05:07:19;14.93;93.80
67054;SHT31;53960;51.826;5.850;2022-09-09T05:09:44;14.90;93.82
67054;SHT31;53960;51.826;5.850;2022-09-09T05:12:10;14.87;93.97
67054;SHT31;53960;51.826;5.850;2022-09-09T05:14:36;14.91;93.78
67054;SHT31;53960;51.826;5.850;2022-09-09T05:17:03;14.90;93.90
67054;SHT31;53960;51.826;5.850;2022-09-09T05:19:28;14.84;94.12
67054;SHT31;53960;51.826;5.850;2022-09-09T05:21:53;14.81;94.27
67054;SHT31;53960;51.826;5.850;2022-09-09T05:24:19;14.86;94.27
67054;SHT31;53960;51.826;5.850;2022-09-09T05:26:44;14.87;94.27
67054;SHT31;53960;51.826;5.850;2022-09-09T05:29:09;14.90;94.45
67054;SHT31;53960;51.826;5.850;2022-09-09T05:31:35;14.97;94.18
67054;SHT31;53960;51.826;5.850;2022-09-09T05:34:00;15.03;94.06
67054;SHT31;53960;51.826;5.850;2022-09-09T05:36:25;15.04;93.98
67054;SHT31;53960;51.826;5.850;2022-09-09T05:38:51;15.07;93.82
67054;SHT31;53960;51.826;5.850;2022-09-09T05:41:18;14.97;94.14
67054;SHT31;53960;51.826;5.850;2022-09-09T05:43:45;15.06;93.83
67054;SHT31;53960;51.826;5.850;2022-09-09T05:46:16;15.07;93.81
67054;SHT31;53960;51.826;5.850;2022-09-09T05:48:43;15.12;93.66
67054;SHT31;53960;51.826;5.850;2022-09-09T05:51:14;15.16;93.65
67054;SHT31;53960;51.826;5.850;2022-09-09T05:53:43;15.18;93.69
67054;SHT31;53960;51.826;5.850;2022-09-09T05:56:11;15.20;93.67
67054;SHT31;53960;51.826;5.850;2022-09-09T05:58:38;15.23;93.59
67054;SHT31;53960;51.826;5.850;2022-09-09T06:01:15;15.25;93.67
67054;SHT31;53960;51.826;5.850;2022-09-09T06:03:42;15.35;93.28
67054;SHT31;53960;51.826;5.850;2022-09-09T06:06:10;15.47;93.01
67054;SHT31;53960;51.826;5.850;2022-09-09T06:08:37;15.51;92.81
67054;SHT31;53960;51.826;5.850;2022-09-09T06:11:16;15.51;92.72
67054;SHT31;53960;51.826;5.850;2022-09-09T06:13:42;15.61;92.51
67054;SHT31;53960;51.826;5.850;2022-09-09T06:16:12;15.59;92.57
67054;SHT31;53960;51.826;5.850;2022-09-09T06:18:38;15.58;92.40
67054;SHT31;53960;51.826;5.850;2022-09-09T06:21:05;15.72;91.97
67054;SHT31;53960;51.826;5.850;2022-09-09T06:23:32;15.76;91.61
67054;SHT31;53960;51.826;5.850;2022-09-09T06:26:30;15.75;91.75
67054;SHT31;53960;51.826;5.850;2022-09-09T06:28:56;15.73;91.76
67054;SHT31;53960;51.826;5.850;2022-09-09T06:31:25;15.83;90.90
67054;SHT31;53960;51.826;5.850;2022-09-09T06:33:52;15.86;90.87
67054;SHT31;53960;51.826;5.850;2022-09-09T06:36:23;15.79;91.12
67054;SHT31;53960;51.826;5.850;2022-09-09T06:38:49;15.81;91.48
67054;SHT31;53960;51.826;5.850;2022-09-09T06:41:17;15.82;91.13
67054;SHT31;53960;51.826;5.850;2022-09-09T06:43:43;15.87;91.01
67054;SHT31;53960;51.826;5.850;2022-09-09T06:46:14;15.89;90.86
67054;SHT31;53960;51.826;5.850;2022-09-09T06:48:40;16.02;90.57
67054;SHT31;53960;51.826;5.850;2022-09-09T06:51:15;16.05;90.22
67054;SHT31;53960;51.826;5.850;2022-09-09T06:53:42;16.06;90.36
67054;SHT31;53960;51.826;5.850;2022-09-09T06:56:23;16.09;90.18
67054;SHT31;53960;51.826;5.850;2022-09-09T06:58:51;16.12;89.89
67054;SHT31;53960;51.826;5.850;2022-09-09T07:01:19;16.13;90.00
67054;SHT31;53960;51.826;5.850;2022-09-09T07:03:47;16.24;89.43
67054;SHT31;53960;51.826;5.850;2022-09-09T07:08:54;16.43;88.90
67054;SHT31;53960;51.826;5.850;2022-09-09T07:11:21;16.43;88.58
67054;SHT31;53960;51.826;5.850;2022-09-09T07:13:47;16.45;88.77
67054;SHT31;53960;51.826;5.850;2022-09-09T07:16:16;16.48;88.76
67054;SHT31;53960;51.826;5.850;2022-09-09T07:18:41;16.45;89.23
67054;SHT31;53960;51.826;5.850;2022-09-09T07:21:09;16.45;89.09
67054;SHT31;53960;51.826;5.850;2022-09-09T07:23:34;16.54;88.26
67054;SHT31;53960;51.826;5.850;2022-09-09T07:26:07;16.58;87.86
67054;SHT31;53960;51.826;5.850;2022-09-09T07:28:33;16.57;88.44
67054;SHT31;53960;51.826;5.850;2022-09-09T07:31:00;16.68;88.30
67054;SHT31;53960;51.826;5.850;2022-09-09T07:33:30;16.72;87.70
67054;SHT31;53960;51.826;5.850;2022-09-09T07:36:06;16.79;87.17
67054;SHT31;53960;51.826;5.850;2022-09-09T07:38:37;16.86;86.58
67054;SHT31;53960;51.826;5.850;2022-09-09T07:41:07;16.88;85.96
67054;SHT31;53960;51.826;5.850;2022-09-09T07:43:38;16.89;86.36
67054;SHT31;53960;51.826;5.850;2022-09-09T07:46:04;16.91;85.03
67054;SHT31;53960;51.826;5.850;2022-09-09T07:48:31;17.02;85.34
67054;SHT31;53960;51.826;5.850;2022-09-09T07:51:11;17.12;85.82
67054;SHT31;53960;51.826;5.850;2022-09-09T07:53:38;17.23;84.81
67054;SHT31;53960;51.826;5.850;2022-09-09T07:56:05;17.30;84.61
67054;SHT31;53960;51.826;5.850;2022-09-09T07:58:31;17.34;84.71
67054;SHT31;53960;51.826;5.850;2022-09-09T08:00:56;17.37;84.26
67054;SHT31;53960;51.826;5.850;2022-09-09T08:03:23;17.36;84.12
67054;SHT31;53960;51.826;5.850;2022-09-09T08:05:48;17.42;84.31
67054;SHT31;53960;51.826;5.850;2022-09-09T08:08:14;17.46;83.21
67054;SHT31;53960;51.826;5.850;2022-09-09T08:10:41;17.53;83.31
67054;SHT31;53960;51.826;5.850;2022-09-09T08:13:06;17.62;84.30
67054;SHT31;53960;51.826;5.850;2022-09-09T08:15:31;17.67;83.62
67054;SHT31;53960;51.826;5.850;2022-09-09T08:17:57;17.71;82.87
67054;SHT31;53960;51.826;5.850;2022-09-09T08:20:22;17.77;83.43
67054;SHT31;53960;51.826;5.850;2022-09-09T08:22:48;17.81;81.86
67054;SHT31;53960;51.826;5.850;2022-09-09T08:25:15;17.87;82.22
67054;SHT31;53960;51.826;5.850;2022-09-09T08:27:40;17.88;81.80
67054;SHT31;53960;51.826;5.850;2022-09-09T08:30:06;17.95;81.37
67054;SHT31;53960;51.826;5.850;2022-09-09T08:32:31;17.94;81.18
67054;SHT31;53960;51.826;5.850;2022-09-09T08:34:56;17.84;80.68
67054;SHT31;53960;51.826;5.850;2022-09-09T08:37:22;17.78;80.67
67054;SHT31;53960;51.826;5.850;2022-09-09T08:39:47;17.77;80.23
67054;SHT31;53960;51.826;5.850;2022-09-09T08:47:37;17.85;80.47
67054;SHT31;53960;51.826;5.850;2022-09-09T08:50:22;17.94;79.46
67054;SHT31;53960;51.826;5.850;2022-09-09T08:53:05;18.01;79.77
67054;SHT31;53960;51.826;5.850;2022-09-09T08:55:54;18.05;78.99
67054;SHT31;53960;51.826;5.850;2022-09-09T08:58:22;18.14;79.07
67054;SHT31;53960;51.826;5.850;2022-09-09T09:11:21;18.15;79.04
67054;SHT31;53960;51.826;5.850;2022-09-09T09:13:54;18.08;78.81
67054;SHT31;53960;51.826;5.850;2022-09-09T09:16:23;18.02;79.83
67054;SHT31;53960;51.826;5.850;2022-09-09T09:18:52;18.00;78.86
67054;SHT31;53960;51.826;5.850;2022-09-09T09:24:25;18.02;78.75
67054;SHT31;53960;51.826;5.850;2022-09-09T09:26:51;18.09;78.96
67054;SHT31;53960;51.826;5.850;2022-09-09T09:29:19;18.08;78.74
67054;SHT31;53960;51.826;5.850;2022-09-09T09:31:52;18.00;78.86
67054;SHT31;53960;51.826;5.850;2022-09-09T09:34:19;18.12;78.02
67054;SHT31;53960;51.826;5.850;2022-09-09T09:36:53;18.25;78.17
67054;SHT31;53960;51.826;5.850;2022-09-09T09:41:50;18.31;77.92
67054;SHT31;53960;51.826;5.850;2022-09-09T09:44:27;18.35;76.99
67054;SHT31;53960;51.826;5.850;2022-09-09T09:47:08;18.32;76.94
67054;SHT31;53960;51.826;5.850;2022-09-09T09:49:34;18.38;77.22
67054;SHT31;53960;51.826;5.850;2022-09-09T09:52:01;18.35;77.90
67054;SHT31;53960;51.826;5.850;2022-09-09T09:54:37;18.24;77.58
67054;SHT31;53960;51.826;5.850;2022-09-09T09:57:11;18.29;77.82
67054;SHT31;53960;51.826;5.850;2022-09-09T09:59:37;18.25;77.50
67054;SHT31;53960;51.826;5.850;2022-09-09T10:02:14;18.12;77.69
67054;SHT31;53960;51.826;5.850;2022-09-09T10:04:40;18.08;77.74
67054;SHT31;53960;51.826;5.850;2022-09-09T10:07:18;18.06;77.11
67054;SHT31;53960;51.826;5.850;2022-09-09T10:09:44;18.06;77.80
67054;SHT31;53960;51.826;5.850;2022-09-09T10:26:43;18.28;77.78
67054;SHT31;53960;51.826;5.850;2022-09-09T10:29:41;18.22;77.91
67054;SHT31;53960;51.826;5.850;2022-09-09T10:38:17;18.83;76.65
67054;SHT31;53960;51.826;5.850;2022-09-09T10:46:45;18.90;74.89
67054;SHT31;53960;51.826;5.850;2022-09-09T10:51:49;18.91;76.65
67054;SHT31;53960;51.826;5.850;2022-09-09T10:56:54;18.60;78.09
67054;SHT31;53960;51.826;5.850;2022-09-09T10:59:25;18.45;77.76
67054;SHT31;53960;51.826;5.850;2022-09-09T11:02:02;18.39;78.43
67054;SHT31;53960;51.826;5.850;2022-09-09T11:04:35;18.31;79.80
67054;SHT31;53960;51.826;5.850;2022-09-09T11:07:08;18.31;80.29
67054;SHT31;53960;51.826;5.850;2022-09-09T11:09:39;18.29;80.58
67054;SHT31;53960;51.826;5.850;2022-09-09T11:12:10;18.24;82.66
67054;SHT31;53960;51.826;5.850;2022-09-09T11:17:10;18.08;82.51
67054;SHT31;53960;51.826;5.850;2022-09-09T11:19:39;17.84;83.95
67054;SHT31;53960;51.826;5.850;2022-09-09T11:22:17;17.66;85.56
67054;SHT31;53960;51.826;5.850;2022-09-09T11:24:48;17.64;85.51
67054;SHT31;53960;51.826;5.850;2022-09-09T11:27:43;17.59;85.97
67054;SHT31;53960;51.826;5.850;2022-09-09T11:30:17;17.63;86.70
67054;SHT31;53960;51.826;5.850;2022-09-09T11:38:16;17.27;87.63
67054;SHT31;53960;51.826;5.850;2022-09-09T11:40:44;17.19;88.95
67054;SHT31;53960;51.826;5.850;2022-09-09T11:43:23;17.29;88.85
67054;SHT31;53960;51.826;5.850;2022-09-09T11:45:52;17.29;88.13
67054;SHT31;53960;51.826;5.850;2022-09-09T11:50:57;17.56;88.16
67054;SHT31;53960;51.826;5.850;2022-09-09T11:53:23;17.70;88.04
67054;SHT31;53960;51.826;5.850;2022-09-09T11:56:01;17.71;86.56
67054;SHT31;53960;51.826;5.850;2022-09-09T11:58:28;17.80;87.70
67054;SHT31;53960;51.826;5.850;2022-09-09T12:00:58;17.85;86.66
67054;SHT31;53960;51.826;5.850;2022-09-09T12:03:48;17.81;87.11
67054;SHT31;53960;51.826;5.850;2022-09-09T12:06:18;17.83;86.86
67054;SHT31;53960;51.826;5.850;2022-09-09T12:08:49;17.78;86.70
67054;SHT31;53960;51.826;5.850;2022-09-09T12:11:28;17.66;86.79
67054;SHT31;53960;51.826;5.850;2022-09-09T12:13:55;17.80;86.08
67054;SHT31;53960;51.826;5.850;2022-09-09T12:16:33;17.84;86.36
67054;SHT31;53960;51.826;5.850;2022-09-09T12:19:25;17.85;86.49
67054;SHT31;53960;51.826;5.850;2022-09-09T12:21:59;17.84;86.36
67054;SHT31;53960;51.826;5.850;2022-09-09T12:24:37;17.77;86.48
67054;SHT31;53960;51.826;5.850;2022-09-09T12:29:40;17.84;87.08
67054;SHT31;53960;51.826;5.850;2022-09-09T12:32:15;18.01;86.10
67054;SHT31;53960;51.826;5.850;2022-09-09T12:34:54;18.14;84.99
67054;SHT31;53960;51.826;5.850;2022-09-09T12:37:34;18.26;85.24
67054;SHT31;53960;51.826;5.850;2022-09-09T12:40:04;18.45;85.03
67054;SHT31;53960;51.826;5.850;2022-09-09T12:42:30;18.49;84.59
67054;SHT31;53960;51.826;5.850;2022-09-09T12:45:03;18.48;84.26
67054;SHT31;53960;51.826;5.850;2022-09-09T12:47:49;18.32;84.68
67054;SHT31;53960;51.826;5.850;2022-09-09T12:50:22;18.26;85.12
67054;SHT31;53960;51.826;5.850;2022-09-09T12:52:52;18.32;84.83
67054;SHT31;53960;51.826;5.850;2022-09-09T12:55:21;18.29;85.47
67054;SHT31;53960;51.826;5.850;2022-09-09T12:57:50;18.26;85.15
67054;SHT31;53960;51.826;5.850;2022-09-09T13:00:21;18.26;85.59
67054;SHT31;53960;51.826;5.850;2022-09-09T13:02:48;18.38;84.81
67054;SHT31;53960;51.826;5.850;2022-09-09T13:05:21;18.52;83.99
67054;SHT31;53960;51.826;5.850;2022-09-09T13:07:47;18.60;83.05
67054;SHT31;53960;51.826;5.850;2022-09-09T13:10:15;18.73;83.61
67054;SHT31;53960;51.826;5.850;2022-09-09T13:12:42;18.60;83.34
67054;SHT31;53960;51.826;5.850;2022-09-09T13:15:20;18.41;83.48
67054;SHT31;53960;51.826;5.850;2022-09-09T13:17:52;18.51;84.62
67054;SHT31;53960;51.826;5.850;2022-09-09T13:20:19;18.67;83.78
67054;SHT31;53960;51.826;5.850;2022-09-09T13:22:48;18.96;82.01
67054;SHT31;53960;51.826;5.850;2022-09-09T13:25:22;19.07;81.32
67054;SHT31;53960;51.826;5.850;2022-09-09T13:28:04;19.12;80.13
67054;SHT31;53960;51.826;5.850;2022-09-09T13:30:31;19.07;80.79
67054;SHT31;53960;51.826;5.850;2022-09-09T13:35:53;18.96;80.92
67054;SHT31;53960;51.826;5.850;2022-09-09T13:38:19;18.91;81.30
67054;SHT31;53960;51.826;5.850;2022-09-09T13:40:57;18.86;82.47
67054;SHT31;53960;51.826;5.850;2022-09-09T13:43:25;18.67;84.23
67054;SHT31;53960;51.826;5.850;2022-09-09T13:46:00;18.49;84.94
67054;SHT31;53960;51.826;5.850;2022-09-09T13:48:27;18.36;86.16
67054;SHT31;53960;51.826;5.850;2022-09-09T13:51:03;18.26;87.14
67054;SHT31;53960;51.826;5.850;2022-09-09T13:53:32;18.26;87.37
67054;SHT31;53960;51.826;5.850;2022-09-09T13:55:58;18.28;87.72
67054;SHT31;53960;51.826;5.850;2022-09-09T13:58:24;18.26;87.88
67054;SHT31;53960;51.826;5.850;2022-09-09T14:00:51;18.31;87.63
67054;SHT31;53960;51.826;5.850;2022-09-09T14:03:17;18.28;88.19
67054;SHT31;53960;51.826;5.850;2022-09-09T14:05:44;18.18;87.99
67054;SHT31;53960;51.826;5.850;2022-09-09T14:08:16;18.11;87.12
67054;SHT31;53960;51.826;5.850;2022-09-09T14:10:45;18.14;88.39
67054;SHT31;53960;51.826;5.850;2022-09-09T14:13:10;18.19;88.16
67054;SHT31;53960;51.826;5.850;2022-09-09T14:15:37;18.51;88.19
67054;SHT31;53960;51.826;5.850;2022-09-09T14:18:02;18.76;88.33
67054;SHT31;53960;51.826;5.850;2022-09-09T14:20:28;18.97;86.73
67054;SHT31;53960;51.826;5.850;2022-09-09T14:22:53;19.12;86.48
67054;SHT31;53960;51.826;5.850;2022-09-09T14:25:18;19.27;85.31
67054;SHT31;53960;51.826;5.850;2022-09-09T14:27:44;19.21;84.28
67054;SHT31;53960;51.826;5.850;2022-09-09T14:30:11;19.21;83.35
67054;SHT31;53960;51.826;5.850;2022-09-09T14:32:36;19.25;83.51
67054;SHT31;53960;51.826;5.850;2022-09-09T14:35:02;19.24;83.38
67054;SHT31;53960;51.826;5.850;2022-09-09T14:37:27;19.18;83.00
67054;SHT31;53960;51.826;5.850;2022-09-09T14:39:53;19.21;82.98
67054;SHT31;53960;51.826;5.850;2022-09-09T14:42:19;19.14;83.45
67054;SHT31;53960;51.826;5.850;2022-09-09T14:44:44;19.08;83.51
67054;SHT31;53960;51.826;5.850;2022-09-09T14:47:09;19.04;83.94
67054;SHT31;53960;51.826;5.850;2022-09-09T14:49:35;19.04;83.31
67054;SHT31;53960;51.826;5.850;2022-09-09T14:52:01;19.04;83.53
67054;SHT31;53960;51.826;5.850;2022-09-09T14:54:27;19.03;83.75
67054;SHT31;53960;51.826;5.850;2022-09-09T14:56:53;19.06;83.50
67054;SHT31;53960;51.826;5.850;2022-09-09T14:59:18;19.11;82.60
67054;SHT31;53960;51.826;5.850;2022-09-09T15:01:44;19.31;82.04
67054;SHT31;53960;51.826;5.850;2022-09-09T15:04:11;19.63;80.99
67054;SHT31;53960;51.826;5.850;2022-09-09T15:06:37;19.85;80.38
67054;SHT31;53960;51.826;5.850;2022-09-09T15:09:04;20.05;78.95
67054;SHT31;53960;51.826;5.850;2022-09-09T15:11:34;19.97;77.30
67054;SHT31;53960;51.826;5.850;2022-09-09T15:14:03;19.85;77.05
67054;SHT31;53960;51.826;5.850;2022-09-09T15:16:29;19.62;78.47
67054;SHT31;53960;51.826;5.850;2022-09-09T15:18:56;19.52;79.42
67054;SHT31;53960;51.826;5.850;2022-09-09T15:21:25;19.45;79.44
67054;SHT31;53960;51.826;5.850;2022-09-09T15:23:51;19.49;80.66
67054;SHT31;53960;51.826;5.850;2022-09-09T15:26:17;19.45;80.27
67054;SHT31;53960;51.826;5.850;2022-09-09T15:28:44;19.47;79.73
67054;SHT31;53960;51.826;5.850;2022-09-09T15:31:16;19.45;80.65
67054;SHT31;53960;51.826;5.850;2022-09-09T15:33:52;19.41;80.25
67054;SHT31;53960;51.826;5.850;2022-09-09T15:36:25;19.36;80.62
67054;SHT31;53960;51.826;5.850;2022-09-09T15:38:52;19.28;81.04
67054;SHT31;53960;51.826;5.850;2022-09-09T15:41:19;19.10;81.12
67054;SHT31;53960;51.826;5.850;2022-09-09T15:43:46;19.04;81.59
67054;SHT31;53960;51.826;5.850;2022-09-09T15:48:44;18.91;82.19
67054;SHT31;53960;51.826;5.850;2022-09-09T15:51:09;18.91;82.64
67054;SHT31;53960;51.826;5.850;2022-09-09T15:53:35;18.90;82.01
67054;SHT31;53960;51.826;5.850;2022-09-09T15:56:02;18.86;82.37
67054;SHT31;53960;51.826;5.850;2022-09-09T15:58:30;18.87;82.43
67054;SHT31;53960;51.826;5.850;2022-09-09T16:01:05;18.84;82.01
67054;SHT31;53960;51.826;5.850;2022-09-09T16:03:38;18.55;83.75
67054;SHT31;53960;51.826;5.850;2022-09-09T16:06:05;18.14;85.86
67054;SHT31;53960;51.826;5.850;2022-09-09T16:08:39;17.88;87.40
67054;SHT31;53960;51.826;5.850;2022-09-09T16:11:15;17.57;87.50
67054;SHT31;53960;51.826;5.850;2022-09-09T16:13:43;17.30;87.85
67054;SHT31;53960;51.826;5.850;2022-09-09T16:16:10;17.34;89.01
67054;SHT31;53960;51.826;5.850;2022-09-09T16:18:37;17.29;89.17
67054;SHT31;53960;51.826;5.850;2022-09-09T16:21:04;17.25;89.73
67054;SHT31;53960;51.826;5.850;2022-09-09T16:23:30;17.19;88.41
67054;SHT31;53960;51.826;5.850;2022-09-09T16:25:56;17.13;89.53
67054;SHT31;53960;51.826;5.850;2022-09-09T16:28:22;17.08;89.30
67054;SHT31;53960;51.826;5.850;2022-09-09T16:30:48;17.08;88.85
67054;SHT31;53960;51.826;5.850;2022-09-09T16:33:13;17.02;89.36
67054;SHT31;53960;51.826;5.850;2022-09-09T16:35:41;17.01;89.06
67054;SHT31;53960;51.826;5.850;2022-09-09T16:38:07;17.02;89.67
67054;SHT31;53960;51.826;5.850;2022-09-09T16:40:38;16.98;90.46
67054;SHT31;53960;51.826;5.850;2022-09-09T16:43:05;16.99;90.45
67054;SHT31;53960;51.826;5.850;2022-09-09T16:45:34;16.99;90.49
67054;SHT31;53960;51.826;5.850;2022-09-09T16:48:06;16.94;91.69
67054;SHT31;53960;51.826;5.850;2022-09-09T16:50:31;16.96;90.83
67054;SHT31;53960;51.826;5.850;2022-09-09T16:52:57;16.98;91.02
67054;SHT31;53960;51.826;5.850;2022-09-09T16:55:22;16.92;90.88
67054;SHT31;53960;51.826;5.850;2022-09-09T16:57:47;16.91;91.02
67054;SHT31;53960;51.826;5.850;2022-09-09T17:00:16;16.91;91.35
67054;SHT31;53960;51.826;5.850;2022-09-09T17:02:44;16.81;90.91
67054;SHT31;53960;51.826;5.850;2022-09-09T17:05:10;16.81;91.01
67054;SHT31;53960;51.826;5.850;2022-09-09T17:07:37;16.72;91.21
67054;SHT31;53960;51.826;5.850;2022-09-09T17:10:02;16.71;90.76
67054;SHT31;53960;51.826;5.850;2022-09-09T17:12:28;16.71;90.82
67054;SHT31;53960;51.826;5.850;2022-09-09T17:14:53;16.71;91.07
67054;SHT31;53960;51.826;5.850;2022-09-09T17:17:20;16.74;90.84
67054;SHT31;53960;51.826;5.850;2022-09-09T17:19:46;16.69;90.74
67054;SHT31;53960;51.826;5.850;2022-09-09T17:22:11;16.67;90.86
67054;SHT31;53960;51.826;5.850;2022-09-09T17:24:37;16.63;90.89
67054;SHT31;53960;51.826;5.850;2022-09-09T17:27:03;16.57;91.23
67054;SHT31;53960;51.826;5.850;2022-09-09T17:29:29;16.50;91.54
67054;SHT31;53960;51.826;5.850;2022-09-09T17:31:54;16.40;92.16
67054;SHT31;53960;51.826;5.850;2022-09-09T17:34:20;16.40;91.73